Time;durP1;ratioP1;P1;durP2;ratioP2;P2;SDS_P1;SDS_P2;PMS_P1;PMS_P2;Temp;Humidity;BMP_temperature;BMP_pressure;BME280_temperature;BME280_humidity;BME280_pressure;Samples;Min_cycle;Max_cycle;Signal;HPM_P1;HPM_P2
2023/03/28 00:01:22;;;;;;;;;;;9.30;67.60;;;;;;5105786;27;87168;-39
2023/03/28 00:03:48;;;;;;;;;;;9.30;67.60;;;;;;5101921;27;89309;-39
2023/03/28 00:06:17;;;;;;;;;;;9.30;67.70;;;;;;5102218;27;87141;-39
2023/03/28 00:08:44;;;;;;;;;;;9.30;67.70;;;;;;5102281;27;88888;-39
2023/03/28 00:11:20;;;;;;;;;;;9.30;67.70;;;;;;5102072;27;89533;-39
2023/03/28 00:13:56;;;;;;;;;;;9.30;67.80;;;;;;5101700;27;87520;-39
2023/03/28 00:16:24;;;;;;;;;;;9.30;67.70;;;;;;5101496;27;87937;-39
2023/03/28 00:18:50;;;;;;;;;;;9.30;67.70;;;;;;5101474;27;89354;-39
2023/03/28 00:21:26;;;;;;;;;;;9.20;67.70;;;;;;5102074;27;87070;-39
2023/03/28 00:23:52;;;;;;;;;;;9.20;67.60;;;;;;5102224;27;89132;-39
2023/03/28 00:26:18;;;;;;;;;;;9.20;67.70;;;;;;5101651;27;87106;-39
2023/03/28 00:28:45;;;;;;;;;;;9.20;67.80;;;;;;5102690;27;88625;-40
2023/03/28 00:31:10;;;;;;;;;;;9.20;67.70;;;;;;5105143;27;89259;-40
2023/03/28 00:33:36;;;;;;;;;;;9.10;67.60;;;;;;5102778;27;86245;-40
2023/03/28 00:36:02;;;;;;;;;;;9.10;67.50;;;;;;5105722;27;87612;-39
2023/03/28 00:38:27;;;;;;;;;;;9.10;68.20;;;;;;5105224;27;89622;-40
2023/03/28 00:40:56;;;;;;;;;;;9.10;67.70;;;;;;5104801;27;88078;-40
2023/03/28 00:43:41;;;;;;;;;;;9.10;67.70;;;;;;5108264;27;89621;-40
2023/03/28 00:46:17;;;;;;;;;;;9.10;67.70;;;;;;5102689;27;87167;-39
2023/03/28 00:48:46;;;;;;;;;;;9.10;67.80;;;;;;5101702;27;88737;-39
2023/03/28 00:51:13;;;;;;;;;;;9.10;67.80;;;;;;5104699;27;89392;-39
2023/03/28 00:53:40;;;;;;;;;;;9.10;67.80;;;;;;5104621;27;87197;-39
2023/03/28 00:56:07;;;;;;;;;;;9.10;67.60;;;;;;5105293;27;88870;-39
2023/03/28 00:58:36;;;;;;;;;;;9.00;67.40;;;;;;5101588;27;89741;-39
2023/03/28 01:01:02;;;;;;;;;;;9.00;67.50;;;;;;5105066;27;87097;-39
2023/03/28 01:03:32;;;;;;;;;;;9.00;67.60;;;;;;5104692;27;88941;-39
2023/03/28 01:06:00;;;;;;;;;;;9.00;67.30;;;;;;5106855;27;90353;-39
2023/03/28 01:08:28;;;;;;;;;;;9.00;67.40;;;;;;5101118;27;88826;-39
2023/03/28 01:10:53;;;;;;;;;;;8.90;67.40;;;;;;5104781;27;89110;-39
2023/03/28 01:13:27;;;;;;;;;;;9.00;67.40;;;;;;5104848;27;87702;-40
2023/03/28 01:15:52;;;;;;;;;;;8.90;67.50;;;;;;5105167;27;88662;-39
2023/03/28 01:18:21;;;;;;;;;;;8.90;67.50;;;;;;5104397;27;89424;-40
2023/03/28 01:20:48;;;;;;;;;;;9.00;67.50;;;;;;5105054;27;87467;-40
2023/03/28 01:23:28;;;;;;;;;;;9.00;67.50;;;;;;5105135;27;87578;-40
2023/03/28 01:25:59;;;;;;;;;;;8.90;67.50;;;;;;5100782;27;89405;-39
2023/03/28 01:28:28;;;;;;;;;;;8.90;67.50;;;;;;5108016;27;87291;-39
2023/03/28 01:31:15;;;;;;;;;;;8.90;67.60;;;;;;5103518;27;90623;-39
2023/03/28 01:34:00;;;;;;;;;;;8.90;67.60;;;;;;5103647;27;87206;-39
2023/03/28 01:36:28;;;;;;;;;;;8.90;67.50;;;;;;5102827;27;88762;-39
2023/03/28 01:38:58;;;;;;;;;;;8.90;67.60;;;;;;5104488;27;88380;-39
2023/03/28 01:41:35;;;;;;;;;;;8.90;67.50;;;;;;5099938;27;86946;-39
2023/03/28 01:44:10;;;;;;;;;;;8.80;67.50;;;;;;5104259;27;87932;-39
2023/03/28 01:46:41;;;;;;;;;;;8.80;67.40;;;;;;5099530;27;89162;-39
2023/03/28 01:49:14;;;;;;;;;;;8.70;67.50;;;;;;5104737;27;86343;-39
2023/03/28 01:51:48;;;;;;;;;;;8.70;67.00;;;;;;5107452;27;87066;-39
2023/03/28 01:54:25;;;;;;;;;;;8.70;67.50;;;;;;5104686;27;86951;-39
2023/03/28 01:57:11;;;;;;;;;;;8.70;67.30;;;;;;5103869;27;87944;-39
2023/03/28 01:59:36;;;;;;;;;;;8.80;67.10;;;;;;5103178;27;89623;-40
2023/03/28 02:02:05;;;;;;;;;;;8.70;67.10;;;;;;5104197;27;87297;-40
2023/03/28 02:04:32;;;;;;;;;;;8.70;67.00;;;;;;5104270;27;88757;-39
2023/03/28 02:06:58;;;;;;;;;;;8.60;67.10;;;;;;5103813;27;88473;-39
2023/03/28 02:09:24;;;;;;;;;;;8.60;66.90;;;;;;5104160;27;86995;-39
2023/03/28 02:11:53;;;;;;;;;;;8.60;67.00;;;;;;5103915;27;88790;-39
2023/03/28 02:14:21;;;;;;;;;;;8.60;67.00;;;;;;5106540;27;89336;-39
2023/03/28 02:16:49;;;;;;;;;;;8.60;66.90;;;;;;5103608;27;88011;-39
2023/03/28 02:19:15;;;;;;;;;;;8.60;67.00;;;;;;5103698;27;89421;-39
2023/03/28 02:21:46;;;;;;;;;;;8.60;67.10;;;;;;5103521;27;88431;-39
2023/03/28 02:24:12;;;;;;;;;;;8.60;67.10;;;;;;5103905;27;89682;-39
2023/03/28 02:26:38;;;;;;;;;;;8.50;67.00;;;;;;5103527;27;87978;-40
2023/03/28 02:29:04;;;;;;;;;;;8.50;67.00;;;;;;5103819;27;87122;-40
2023/03/28 02:31:31;;;;;;;;;;;8.50;67.10;;;;;;5103937;27;87330;-40
2023/03/28 02:33:57;;;;;;;;;;;8.50;67.10;;;;;;5103267;27;89540;-40
2023/03/28 02:36:23;;;;;;;;;;;8.50;67.10;;;;;;5106597;27;87234;-40
2023/03/28 02:39:00;;;;;;;;;;;8.50;67.10;;;;;;5103881;27;88855;-39
2023/03/28 02:41:47;;;;;;;;;;;8.50;67.10;;;;;;5103519;27;87157;-39
2023/03/28 02:44:15;;;;;;;;;;;8.50;67.10;;;;;;5101572;27;87060;-39
2023/03/28 02:46:41;;;;;;;;;;;8.40;67.20;;;;;;5102584;27;90750;-39
2023/03/28 02:49:12;;;;;;;;;;;8.40;67.20;;;;;;5103466;27;87175;-39
2023/03/28 02:51:47;;;;;;;;;;;8.40;67.20;;;;;;5103345;27;88039;-39
2023/03/28 02:54:21;;;;;;;;;;;8.40;67.10;;;;;;5102419;27;89044;-39
2023/03/28 02:57:00;;;;;;;;;;;8.40;67.10;;;;;;5103664;27;87390;-39
2023/03/28 02:59:34;;;;;;;;;;;8.40;67.10;;;;;;5102505;27;89348;-39
2023/03/28 03:02:01;;;;;;;;;;;8.40;67.10;;;;;;5100021;27;87089;-39
2023/03/28 03:04:26;;;;;;;;;;;8.40;66.90;;;;;;5103657;27;88983;-40
2023/03/28 03:06:52;;;;;;;;;;;8.30;66.90;;;;;;5103246;27;88143;-39
2023/03/28 03:09:17;;;;;;;;;;;8.30;67.00;;;;;;5103159;27;87108;-39
2023/03/28 03:11:43;;;;;;;;;;;8.30;66.90;;;;;;5101962;27;88530;-39
2023/03/28 03:14:09;;;;;;;;;;;8.30;66.90;;;;;;5102152;27;89701;-39
2023/03/28 03:16:37;;;;;;;;;;;8.30;67.50;;;;;;5102364;27;87149;-40
2023/03/28 03:19:02;;;;;;;;;;;8.30;66.80;;;;;;5104746;27;88722;-40
2023/03/28 03:21:28;;;;;;;;;;;8.30;67.40;;;;;;5102640;27;87094;-40
2023/03/28 03:23:54;;;;;;;;;;;8.20;66.60;;;;;;5102271;27;88516;-40
2023/03/28 03:26:19;;;;;;;;;;;8.20;66.50;;;;;;5102050;27;89279;-40
2023/03/28 03:28:45;;;;;;;;;;;8.20;66.60;;;;;;5102992;27;86863;-40
2023/03/28 03:31:10;;;;;;;;;;;8.20;66.30;;;;;;5102243;27;87989;-39
2023/03/28 03:33:41;;;;;;;;;;;8.20;66.20;;;;;;5102225;27;89234;-39
2023/03/28 03:36:08;;;;;;;;;;;8.20;66.50;;;;;;5101458;27;87961;-39
2023/03/28 03:38:34;;;;;;;;;;;8.10;66.20;;;;;;5101757;27;89803;-40
2023/03/28 03:41:00;;;;;;;;;;;8.10;66.40;;;;;;5104696;27;89320;-39
2023/03/28 03:43:26;;;;;;;;;;;8.10;66.20;;;;;;5102406;27;88846;-39
2023/03/28 03:45:52;;;;;;;;;;;8.10;66.10;;;;;;5101683;27;89452;-39
2023/03/28 03:48:17;;;;;;;;;;;8.10;66.00;;;;;;5102895;27;86990;-39
2023/03/28 03:50:43;;;;;;;;;;;8.00;66.10;;;;;;5101928;27;88183;-40
2023/03/28 03:53:09;;;;;;;;;;;8.00;66.20;;;;;;5102364;27;88696;-40
2023/03/28 03:55:37;;;;;;;;;;;8.00;66.30;;;;;;5102176;27;87357;-40
2023/03/28 03:58:02;;;;;;;;;;;8.00;66.20;;;;;;5102273;27;87332;-40
2023/03/28 04:00:28;;;;;;;;;;;8.00;65.80;;;;;;5100829;27;90612;-40
2023/03/28 04:02:53;;;;;;;;;;;8.00;65.90;;;;;;5105088;27;87598;-39
2023/03/28 04:05:19;;;;;;;;;;;7.90;65.70;;;;;;5105006;27;88362;-39
2023/03/28 04:07:44;;;;;;;;;;;7.90;66.00;;;;;;5105767;27;87204;-39
2023/03/28 04:10:10;;;;;;;;;;;7.90;66.10;;;;;;5105364;27;89351;-39
2023/03/28 04:12:35;;;;;;;;;;;7.90;66.00;;;;;;5104795;27;88971;-39
2023/03/28 04:15:01;;;;;;;;;;;7.90;66.00;;;;;;5105324;27;87051;-39
2023/03/28 04:17:28;;;;;;;;;;;7.90;65.80;;;;;;5106031;27;87783;-39
2023/03/28 04:19:54;;;;;;;;;;;7.90;65.90;;;;;;5105076;27;89578;-40
2023/03/28 04:22:20;;;;;;;;;;;7.90;65.80;;;;;;5105489;27;87238;-40
2023/03/28 04:24:48;;;;;;;;;;;7.90;65.90;;;;;;5107341;27;87983;-40
2023/03/28 04:27:14;;;;;;;;;;;7.80;65.50;;;;;;5105488;27;87163;-40
2023/03/28 04:29:40;;;;;;;;;;;7.80;65.80;;;;;;5105627;27;88913;-40
2023/03/28 04:32:06;;;;;;;;;;;7.80;65.70;;;;;;5105315;27;89092;-40
2023/03/28 04:34:32;;;;;;;;;;;7.80;65.90;;;;;;5105608;27;87115;-40
2023/03/28 04:37:01;;;;;;;;;;;7.80;65.80;;;;;;5101420;27;88829;-40
2023/03/28 04:39:30;;;;;;;;;;;7.70;66.00;;;;;;5104935;27;89175;-40
2023/03/28 04:42:00;;;;;;;;;;;7.70;66.10;;;;;;5105535;27;86781;-40
2023/03/28 04:44:29;;;;;;;;;;;7.70;65.90;;;;;;5105210;27;88289;-40
2023/03/28 04:46:55;;;;;;;;;;;7.70;66.00;;;;;;5107841;27;89214;-40
2023/03/28 04:49:21;;;;;;;;;;;7.70;66.10;;;;;;5104370;27;88825;-40
2023/03/28 04:51:47;;;;;;;;;;;7.70;66.70;;;;;;5103328;27;90963;-40
2023/03/28 04:54:13;;;;;;;;;;;7.70;66.10;;;;;;5104767;27;87126;-40
2023/03/28 04:56:39;;;;;;;;;;;7.70;66.20;;;;;;5104753;27;88603;-40
2023/03/28 04:59:05;;;;;;;;;;;7.60;66.20;;;;;;5096833;27;88279;-40
2023/03/28 05:01:31;;;;;;;;;;;7.60;66.20;;;;;;5104954;27;87133;-40
2023/03/28 05:03:57;;;;;;;;;;;7.60;66.20;;;;;;5105101;27;88857;-40
2023/03/28 05:06:24;;;;;;;;;;;7.60;66.20;;;;;;5107760;27;88938;-40
2023/03/28 05:08:50;;;;;;;;;;;7.70;66.20;;;;;;5105071;27;87910;-40
2023/03/28 05:11:15;;;;;;;;;;;7.60;66.10;;;;;;5104455;27;88717;-40
2023/03/28 05:13:41;;;;;;;;;;;7.60;66.00;;;;;;5103855;27;88240;-40
2023/03/28 05:16:07;;;;;;;;;;;7.60;66.10;;;;;;5103452;27;89752;-40
2023/03/28 05:18:32;;;;;;;;;;;7.60;66.40;;;;;;5104225;27;89223;-40
2023/03/28 05:20:57;;;;;;;;;;;7.50;66.30;;;;;;5104740;27;87034;-40
2023/03/28 05:23:23;;;;;;;;;;;7.50;66.10;;;;;;5104908;27;87426;-40
2023/03/28 05:25:52;;;;;;;;;;;7.50;66.10;;;;;;5104273;27;89569;-40
2023/03/28 05:28:18;;;;;;;;;;;7.50;66.20;;;;;;5099391;27;87136;-40
2023/03/28 05:30:43;;;;;;;;;;;7.50;66.20;;;;;;5104788;27;88769;-40
2023/03/28 05:33:09;;;;;;;;;;;7.50;66.00;;;;;;5104076;27;87193;-40
2023/03/28 05:35:36;;;;;;;;;;;7.50;66.00;;;;;;5103788;27;88571;-40
2023/03/28 05:38:02;;;;;;;;;;;7.50;66.00;;;;;;5103341;27;90472;-40
2023/03/28 05:40:27;;;;;;;;;;;7.50;65.80;;;;;;5104079;27;87169;-40
2023/03/28 05:42:53;;;;;;;;;;;7.40;65.90;;;;;;5104030;27;87901;-40
2023/03/28 05:45:18;;;;;;;;;;;7.40;65.90;;;;;;5103587;27;89538;-40
2023/03/28 05:47:44;;;;;;;;;;;7.40;65.90;;;;;;5103570;27;87218;-40
2023/03/28 05:50:10;;;;;;;;;;;7.40;65.90;;;;;;5106411;27;89312;-40
2023/03/28 05:52:35;;;;;;;;;;;7.40;66.00;;;;;;5104001;27;87060;-40
2023/03/28 05:55:01;;;;;;;;;;;7.30;65.80;;;;;;5104015;27;87905;-40
2023/03/28 05:57:26;;;;;;;;;;;7.30;65.80;;;;;;5099345;27;89709;-40
2023/03/28 05:59:52;;;;;;;;;;;7.30;65.80;;;;;;5104400;27;87205;-40
2023/03/28 06:02:19;;;;;;;;;;;7.30;65.60;;;;;;5103640;27;87906;-40
2023/03/28 06:04:45;;;;;;;;;;;7.30;65.80;;;;;;5103560;27;89138;-40
2023/03/28 06:07:11;;;;;;;;;;;7.30;65.50;;;;;;5103979;27;87044;-40
2023/03/28 06:09:36;;;;;;;;;;;7.30;65.90;;;;;;5103956;27;88786;-40
2023/03/28 06:12:02;;;;;;;;;;;7.30;65.80;;;;;;5098705;27;89490;-40
2023/03/28 06:14:28;;;;;;;;;;;7.30;65.90;;;;;;5104538;27;87171;-40
2023/03/28 06:16:53;;;;;;;;;;;7.30;65.80;;;;;;5103270;27;88340;-40
2023/03/28 06:19:19;;;;;;;;;;;7.30;65.90;;;;;;5104638;27;86387;-40
2023/03/28 06:21:45;;;;;;;;;;;7.30;65.90;;;;;;5104278;27;87132;-40
2023/03/28 06:24:10;;;;;;;;;;;7.30;65.70;;;;;;5103584;27;89462;-40
2023/03/28 06:26:36;;;;;;;;;;;7.20;65.70;;;;;;5103503;27;88267;-40
2023/03/28 06:29:01;;;;;;;;;;;7.20;65.60;;;;;;5102402;27;91142;-40
2023/03/28 06:31:27;;;;;;;;;;;7.20;66.20;;;;;;5103829;27;89394;-40
2023/03/28 06:33:52;;;;;;;;;;;7.20;65.60;;;;;;5106554;27;87545;-40
2023/03/28 06:36:18;;;;;;;;;;;7.10;65.70;;;;;;5103259;27;89168;-40
2023/03/28 06:38:44;;;;;;;;;;;7.20;65.80;;;;;;5103901;27;87130;-40
2023/03/28 06:41:10;;;;;;;;;;;7.10;65.70;;;;;;5103846;27;89002;-40
2023/03/28 06:43:35;;;;;;;;;;;7.10;65.50;;;;;;5100054;27;88536;-40
2023/03/28 06:46:01;;;;;;;;;;;7.10;65.60;;;;;;5103170;27;87125;-40
2023/03/28 06:48:30;;;;;;;;;;;7.10;65.60;;;;;;5103589;27;87745;-40
2023/03/28 06:50:59;;;;;;;;;;;7.00;65.70;;;;;;5098410;27;90546;-40
2023/03/28 06:53:25;;;;;;;;;;;7.10;65.70;;;;;;5103133;27;87180;-40
2023/03/28 06:55:52;;;;;;;;;;;7.10;65.70;;;;;;5106060;27;88731;-40
2023/03/28 06:58:18;;;;;;;;;;;7.10;65.50;;;;;;5103531;27;87081;-40
2023/03/28 07:00:43;;;;;;;;;;;7.10;65.50;;;;;;5103025;27;88794;-40
2023/03/28 07:03:09;;;;;;;;;;;7.00;65.10;;;;;;5101431;27;89294;-40
2023/03/28 07:05:38;;;;;;;;;;;6.90;65.80;;;;;;5102789;27;87115;-40
2023/03/28 07:08:05;;;;;;;;;;;6.90;65.40;;;;;;5099672;27;88523;-40
2023/03/28 07:10:30;;;;;;;;;;;7.00;65.70;;;;;;5103315;27;88312;-40
2023/03/28 07:12:55;;;;;;;;;;;7.00;65.50;;;;;;5103350;27;87149;-40
2023/03/28 07:15:21;;;;;;;;;;;6.90;65.50;;;;;;5105610;27;87950;-40
2023/03/28 07:17:47;;;;;;;;;;;6.90;65.40;;;;;;5103057;27;87199;-40
2023/03/28 07:20:12;;;;;;;;;;;6.90;65.30;;;;;;5102638;27;88849;-40
2023/03/28 07:22:38;;;;;;;;;;;6.90;66.00;;;;;;5102923;27;88622;-40
2023/03/28 07:25:03;;;;;;;;;;;6.90;65.40;;;;;;5103407;27;87195;-40
2023/03/28 07:27:29;;;;;;;;;;;6.90;65.20;;;;;;5103230;27;88756;-40
2023/03/28 07:29:54;;;;;;;;;;;6.90;65.30;;;;;;5102769;27;89770;-40
2023/03/28 07:32:21;;;;;;;;;;;6.90;65.50;;;;;;5102948;27;86248;-40
2023/03/28 07:34:46;;;;;;;;;;;6.80;65.40;;;;;;5102698;27;88172;-40
2023/03/28 07:37:12;;;;;;;;;;;6.90;65.50;;;;;;5104930;27;89048;-39
2023/03/28 07:39:38;;;;;;;;;;;6.80;65.50;;;;;;5101410;27;89060;-39
2023/03/28 07:42:08;;;;;;;;;;;6.80;65.50;;;;;;5102268;27;89714;-39
2023/03/28 07:44:34;;;;;;;;;;;6.80;65.40;;;;;;5102409;27;87164;-40
2023/03/28 07:47:00;;;;;;;;;;;6.80;65.10;;;;;;5103064;27;88893;-39
2023/03/28 07:49:26;;;;;;;;;;;6.70;65.40;;;;;;5102523;27;88600;-39
2023/03/28 07:51:51;;;;;;;;;;;6.80;65.70;;;;;;5102426;27;87297;-39
2023/03/28 07:54:17;;;;;;;;;;;6.70;65.40;;;;;;5103073;27;87416;-39
2023/03/28 07:56:43;;;;;;;;;;;6.70;65.30;;;;;;5102543;27;88695;-40
2023/03/28 07:59:09;;;;;;;;;;;6.70;65.20;;;;;;5105763;27;87658;-40
2023/03/28 08:01:34;;;;;;;;;;;6.70;65.30;;;;;;5102403;27;89057;-40
2023/03/28 08:04:01;;;;;;;;;;;6.70;65.60;;;;;;5097565;27;88224;-40
2023/03/28 08:06:26;;;;;;;;;;;6.70;65.50;;;;;;5101976;27;89945;-39
2023/03/28 08:08:52;;;;;;;;;;;6.70;65.80;;;;;;5101908;27;89430;-39
2023/03/28 08:11:17;;;;;;;;;;;6.60;65.60;;;;;;5102455;27;87178;-39
2023/03/28 08:13:42;;;;;;;;;;;6.70;65.60;;;;;;5101518;27;87908;-39
2023/03/28 08:16:08;;;;;;;;;;;6.70;65.30;;;;;;5102154;27;88122;-39
2023/03/28 08:18:34;;;;;;;;;;;6.70;65.40;;;;;;5101556;27;88597;-40
2023/03/28 08:21:00;;;;;;;;;;;6.60;65.40;;;;;;5104858;27;88783;-40
2023/03/28 08:23:26;;;;;;;;;;;6.60;65.50;;;;;;5098052;27;88372;-40
2023/03/28 08:25:58;;;;;;;;;;;6.50;65.30;;;;;;5102148;27;88759;-40
2023/03/28 08:28:23;;;;;;;;;;;6.60;65.40;;;;;;5100786;27;90120;-40
2023/03/28 08:30:49;;;;;;;;;;;6.60;65.40;;;;;;5102133;27;87147;-40
2023/03/28 08:33:14;;;;;;;;;;;6.50;65.10;;;;;;5101659;27;88821;-40
2023/03/28 08:35:40;;;;;;;;;;;6.50;65.20;;;;;;5101346;27;88262;-40
2023/03/28 08:38:06;;;;;;;;;;;6.50;65.10;;;;;;5102066;27;87168;-40
2023/03/28 08:40:34;;;;;;;;;;;6.50;65.40;;;;;;5101769;27;88977;-40
2023/03/28 08:43:18;;;;;;;;;;;6.50;65.30;;;;;;5104540;27;88025;-40
2023/03/28 08:45:44;;;;;;;;;;;6.50;65.40;;;;;;5099890;27;87640;-40
2023/03/28 08:48:10;;;;;;;;;;;6.50;64.70;;;;;;5101026;27;87309;-40
2023/03/28 08:50:43;;;;;;;;;;;6.50;64.90;;;;;;5101490;27;87184;-40
2023/03/28 08:53:15;;;;;;;;;;;6.40;65.00;;;;;;5101894;27;89132;-39
2023/03/28 08:55:41;;;;;;;;;;;6.40;65.00;;;;;;5105261;27;88077;-40
2023/03/28 08:58:13;;;;;;;;;;;6.40;65.30;;;;;;5105356;27;87029;-40
2023/03/28 09:00:39;;;;;;;;;;;6.40;65.00;;;;;;5101793;27;88788;-40
2023/03/28 09:03:10;;;;;;;;;;;6.40;65.30;;;;;;5104652;27;89363;-40
2023/03/28 09:05:42;;;;;;;;;;;6.40;65.10;;;;;;5107513;27;86923;-40
2023/03/28 09:08:07;;;;;;;;;;;6.40;65.00;;;;;;5101031;27;89490;-40
2023/03/28 09:10:36;;;;;;;;;;;6.40;65.20;;;;;;5105460;27;86311;-40
2023/03/28 09:13:20;;;;;;;;;;;6.40;65.10;;;;;;5104558;27;87189;-40
2023/03/28 09:16:01;;;;;;;;;;;6.40;65.20;;;;;;5101767;27;89187;-40
2023/03/28 09:18:45;;;;;;;;;;;6.40;65.00;;;;;;5100121;27;89523;-40
2023/03/28 09:21:14;;;;;;;;;;;6.40;65.30;;;;;;5104319;27;89575;-40
2023/03/28 09:23:42;;;;;;;;;;;6.40;65.20;;;;;;5104473;27;87927;-40
2023/03/28 09:26:15;;;;;;;;;;;6.40;64.80;;;;;;5107191;27;87198;-40
2023/03/28 09:28:50;;;;;;;;;;;6.40;65.10;;;;;;5103812;27;89216;-40
2023/03/28 09:31:17;;;;;;;;;;;6.30;65.20;;;;;;5101689;27;87081;-40
2023/03/28 09:33:45;;;;;;;;;;;6.30;65.10;;;;;;5103803;27;87799;-40
2023/03/28 09:36:12;;;;;;;;;;;6.30;64.80;;;;;;5103988;27;87329;-40
2023/03/28 09:38:42;;;;;;;;;;;6.30;65.00;;;;;;5104345;27;87269;-40
2023/03/28 09:41:26;;;;;;;;;;;6.30;65.00;;;;;;5103823;27;88407;-40
2023/03/28 09:43:53;;;;;;;;;;;6.30;64.80;;;;;;5099554;27;89332;-40
2023/03/28 09:46:29;;;;;;;;;;;6.30;65.00;;;;;;5103881;27;87158;-40
2023/03/28 09:48:54;;;;;;;;;;;6.20;65.00;;;;;;5106455;27;88769;-40
2023/03/28 09:51:20;;;;;;;;;;;6.20;64.90;;;;;;5103909;27;87250;-39
2023/03/28 09:53:46;;;;;;;;;;;6.30;65.10;;;;;;5103697;27;88693;-39
2023/03/28 09:56:16;;;;;;;;;;;6.20;64.90;;;;;;5103496;27;88571;-39
2023/03/28 09:58:46;;;;;;;;;;;6.30;64.80;;;;;;5103765;27;87181;-40
2023/03/28 10:01:22;;;;;;;;;;;6.30;64.80;;;;;;5104352;27;87562;-40
2023/03/28 10:03:53;;;;;;;;;;;6.30;64.80;;;;;;5103475;27;89178;-40
2023/03/28 10:06:22;;;;;;;;;;;6.30;64.80;;;;;;5103636;27;87541;-40
2023/03/28 10:08:48;;;;;;;;;;;6.30;65.00;;;;;;5099455;27;88832;-40
2023/03/28 10:11:17;;;;;;;;;;;6.20;64.90;;;;;;5106389;27;88005;-40
2023/03/28 10:13:47;;;;;;;;;;;6.20;64.70;;;;;;5103162;27;87279;-40
2023/03/28 10:16:26;;;;;;;;;;;6.20;65.10;;;;;;5103412;27;89284;-40
2023/03/28 10:18:51;;;;;;;;;;;6.20;64.90;;;;;;5101317;27;87624;-40
2023/03/28 10:21:19;;;;;;;;;;;6.20;64.80;;;;;;5103200;27;88694;-40
2023/03/28 10:23:50;;;;;;;;;;;6.20;64.90;;;;;;5103247;27;87386;-40
2023/03/28 10:26:17;;;;;;;;;;;6.20;64.80;;;;;;5100986;27;86350;-40
2023/03/28 10:28:42;;;;;;;;;;;6.20;64.60;;;;;;5103325;27;88009;-40
2023/03/28 10:31:11;;;;;;;;;;;6.10;64.80;;;;;;5102895;27;89553;-40
2023/03/28 10:33:40;;;;;;;;;;;6.10;65.00;;;;;;5105510;27;88147;-40
2023/03/28 10:36:08;;;;;;;;;;;6.10;64.70;;;;;;5098669;27;89622;-40
2023/03/28 10:38:35;;;;;;;;;;;6.10;64.60;;;;;;5102810;27;87544;-40
2023/03/28 10:41:11;;;;;;;;;;;6.10;64.80;;;;;;5103128;27;88958;-39
2023/03/28 10:43:40;;;;;;;;;;;6.00;64.80;;;;;;5102494;27;88529;-40
2023/03/28 10:46:14;;;;;;;;;;;6.00;64.60;;;;;;5101697;27;87121;-40
2023/03/28 10:48:40;;;;;;;;;;;6.00;64.70;;;;;;5103132;27;88759;-40
2023/03/28 10:51:09;;;;;;;;;;;6.00;64.80;;;;;;5103465;27;90068;-40
2023/03/28 10:53:38;;;;;;;;;;;6.00;64.80;;;;;;5103213;27;87523;-40
2023/03/28 10:56:22;;;;;;;;;;;6.00;64.60;;;;;;5105367;27;88012;-40
2023/03/28 10:59:11;;;;;;;;;;;6.00;64.80;;;;;;5098760;27;88094;-39
2023/03/28 11:01:39;;;;;;;;;;;6.00;64.70;;;;;;5089436;27;88317;-40
2023/03/28 11:04:24;;;;;;;;;;;6.00;64.50;;;;;;5102016;27;89498;-40
2023/03/28 11:06:57;;;;;;;;;;;6.00;64.40;;;;;;5099503;27;87462;-40
2023/03/28 11:09:46;;;;;;;;;;;6.00;64.60;;;;;;5103010;27;87793;-40
2023/03/28 11:12:15;;;;;;;;;;;6.00;64.50;;;;;;5096704;27;87994;-40
2023/03/28 11:14:56;;;;;;;;;;;6.00;64.50;;;;;;5101012;27;87061;-40
2023/03/28 11:18:00;;;;;;;;;;;5.90;64.60;;;;;;5105673;27;88625;-40
2023/03/28 11:20:28;;;;;;;;;;;5.90;64.20;;;;;;5029217;28;87240;-40
2023/03/28 11:23:05;;;;;;;;;;;5.90;64.40;;;;;;5028969;28;89227;-40
2023/03/28 11:25:54;;;;;;;;;;;5.90;64.30;;;;;;5065502;27;89053;-40
2023/03/28 11:28:22;;;;;;;;;;;5.90;64.50;;;;;;5102478;27;87054;-40
2023/03/28 11:30:51;;;;;;;;;;;5.90;64.40;;;;;;5102603;27;87556;-40
2023/03/28 11:33:20;;;;;;;;;;;5.90;64.40;;;;;;5102293;27;87115;-40
2023/03/28 11:36:04;;;;;;;;;;;5.90;64.40;;;;;;5102710;27;87669;-40
2023/03/28 11:38:32;;;;;;;;;;;5.90;64.20;;;;;;5097367;27;88803;-40
2023/03/28 11:41:03;;;;;;;;;;;5.90;64.30;;;;;;5104510;27;88291;-40
2023/03/28 11:43:38;;;;;;;;;;;5.90;64.30;;;;;;5099274;27;88972;-39
2023/03/28 11:46:08;;;;;;;;;;;5.90;64.50;;;;;;5102019;27;88621;-39
2023/03/28 11:48:49;;;;;;;;;;;5.90;64.50;;;;;;5101929;27;87164;-40
2023/03/28 11:51:17;;;;;;;;;;;5.90;64.50;;;;;;5101482;27;88908;-40
2023/03/28 11:53:49;;;;;;;;;;;5.90;64.60;;;;;;5101470;27;88119;-40
2023/03/28 11:56:14;;;;;;;;;;;5.90;64.30;;;;;;5101916;27;87539;-40
2023/03/28 11:58:42;;;;;;;;;;;5.90;64.50;;;;;;5101709;27;88438;-40
2023/03/28 12:01:13;;;;;;;;;;;5.90;64.30;;;;;;5101273;27;89270;-40
2023/03/28 12:03:53;;;;;;;;;;;5.90;64.50;;;;;;5104335;27;87521;-40
2023/03/28 12:06:25;;;;;;;;;;;5.90;64.20;;;;;;5101350;27;88575;-40
2023/03/28 12:09:10;;;;;;;;;;;5.90;64.20;;;;;;5098656;27;86355;-40
2023/03/28 12:11:38;;;;;;;;;;;5.80;64.40;;;;;;5101776;27;88005;-40
2023/03/28 12:14:23;;;;;;;;;;;5.80;64.30;;;;;;5100716;27;89512;-40
2023/03/28 12:16:50;;;;;;;;;;;5.80;64.20;;;;;;5074302;27;88143;-40
2023/03/28 12:19:20;;;;;;;;;;;5.80;64.40;;;;;;5101318;27;89856;-40
2023/03/28 12:21:48;;;;;;;;;;;5.80;64.60;;;;;;5100967;27;89552;-40
2023/03/28 12:24:24;;;;;;;;;;;5.80;64.50;;;;;;5101314;27;87498;-40
2023/03/28 12:27:08;;;;;;;;;;;5.80;64.40;;;;;;5105006;27;87581;-40
2023/03/28 12:29:34;;;;;;;;;;;5.80;64.40;;;;;;5101510;27;87082;-40
2023/03/28 12:32:15;;;;;;;;;;;5.80;64.50;;;;;;5104848;27;88746;-40
2023/03/28 12:34:45;;;;;;;;;;;5.80;64.90;;;;;;5105172;27;89373;-40
2023/03/28 12:37:16;;;;;;;;;;;5.80;64.50;;;;;;5104606;27;87352;-40
2023/03/28 12:39:42;;;;;;;;;;;5.80;64.10;;;;;;5103243;27;88659;-40
2023/03/28 12:42:10;;;;;;;;;;;5.80;64.20;;;;;;5103473;27;88223;-39
2023/03/28 12:44:39;;;;;;;;;;;5.80;64.00;;;;;;5104379;27;87103;-39
2023/03/28 12:47:09;;;;;;;;;;;5.80;63.90;;;;;;5104626;27;88089;-40
2023/03/28 12:50:00;;;;;;;;;;;5.70;64.00;;;;;;5108110;27;87961;-40
2023/03/28 12:52:29;;;;;;;;;;;5.80;64.10;;;;;;5074024;27;88022;-40
2023/03/28 12:55:03;;;;;;;;;;;5.70;64.00;;;;;;5104093;27;89485;-40
2023/03/28 12:57:47;;;;;;;;;;;5.70;63.80;;;;;;5104876;27;87095;-39
2023/03/28 13:00:13;;;;;;;;;;;5.70;63.80;;;;;;5101753;27;87358;-40
2023/03/28 13:02:57;;;;;;;;;;;5.70;63.60;;;;;;5104108;27;89421;-40
2023/03/28 13:05:35;;;;;;;;;;;5.70;63.70;;;;;;5100936;27;87268;-40
2023/03/28 13:08:03;;;;;;;;;;;5.70;63.60;;;;;;5104102;27;88649;-40
2023/03/28 13:10:40;;;;;;;;;;;5.70;63.60;;;;;;5104342;27;89416;-40
2023/03/28 13:13:33;;;;;;;;;;;5.70;63.90;;;;;;5106972;27;87086;-40
2023/03/28 13:16:01;;;;;;;;;;;5.70;64.00;;;;;;5095966;27;89600;-40
2023/03/28 13:18:30;;;;;;;;;;;5.60;63.80;;;;;;5103630;27;87507;-40
2023/03/28 13:20:56;;;;;;;;;;;5.60;63.90;;;;;;5103716;27;88888;-39
2023/03/28 13:23:35;;;;;;;;;;;5.60;63.90;;;;;;5103552;27;88558;-39
2023/03/28 13:26:05;;;;;;;;;;;5.60;63.80;;;;;;5104246;27;86205;-39
2023/03/28 13:28:32;;;;;;;;;;;5.60;63.80;;;;;;5103935;27;88637;-40
2023/03/28 13:31:31;;;;;;;;;;;5.70;63.90;;;;;;5103571;27;89199;-40
2023/03/28 13:34:00;;;;;;;;;;;5.60;63.80;;;;;;5093402;27;88687;-40
2023/03/28 13:36:27;;;;;;;;;;;5.60;64.00;;;;;;5099047;27;88426;-40
2023/03/28 13:39:06;;;;;;;;;;;5.60;63.70;;;;;;5103543;27;87117;-40
2023/03/28 13:41:34;;;;;;;;;;;5.60;63.60;;;;;;5103541;27;88671;-39
2023/03/28 13:44:11;;;;;;;;;;;5.60;63.70;;;;;;5102890;27;89319;-39
2023/03/28 13:46:43;;;;;;;;;;;5.60;63.30;;;;;;5103282;27;87522;-39
2023/03/28 13:49:09;;;;;;;;;;;5.60;63.50;;;;;;5100190;27;88914;-39
2023/03/28 13:51:38;;;;;;;;;;;5.70;63.60;;;;;;5103182;27;88735;-39
2023/03/28 13:54:03;;;;;;;;;;;5.60;63.50;;;;;;5103661;27;87101;-39
2023/03/28 13:56:31;;;;;;;;;;;5.60;63.60;;;;;;5106097;27;87369;-39
2023/03/28 13:59:00;;;;;;;;;;;5.60;63.60;;;;;;5098885;27;88131;-40
2023/03/28 14:01:43;;;;;;;;;;;5.60;63.70;;;;;;5099136;27;89621;-40
2023/03/28 14:04:14;;;;;;;;;;;5.60;64.40;;;;;;5103467;27;87092;-40
2023/03/28 14:06:41;;;;;;;;;;;5.60;63.70;;;;;;5099563;27;87060;-39
2023/03/28 14:09:12;;;;;;;;;;;5.60;63.60;;;;;;5103342;27;88597;-39
2023/03/28 14:11:39;;;;;;;;;;;5.60;63.40;;;;;;5102818;27;89387;-40
2023/03/28 14:14:13;;;;;;;;;;;5.60;63.30;;;;;;5102288;27;87200;-39
2023/03/28 14:16:40;;;;;;;;;;;5.60;63.50;;;;;;5103427;27;86834;-39
2023/03/28 14:19:07;;;;;;;;;;;5.60;63.30;;;;;;5105143;27;88050;-40
2023/03/28 14:21:33;;;;;;;;;;;5.60;63.40;;;;;;5102902;27;88160;-39
2023/03/28 14:24:00;;;;;;;;;;;5.60;63.20;;;;;;5101941;27;89352;-39
2023/03/28 14:26:28;;;;;;;;;;;5.60;63.20;;;;;;5103000;27;87169;-39
2023/03/28 14:28:57;;;;;;;;;;;5.60;63.10;;;;;;5102481;27;89696;-39
2023/03/28 14:31:36;;;;;;;;;;;5.60;63.20;;;;;;5102124;27;89999;-39
2023/03/28 14:34:22;;;;;;;;;;;5.60;63.10;;;;;;5100709;27;87470;-39
2023/03/28 14:36:57;;;;;;;;;;;5.60;63.10;;;;;;5100712;27;87366;-40
2023/03/28 14:39:23;;;;;;;;;;;5.60;63.00;;;;;;5101976;27;89217;-39
2023/03/28 14:41:48;;;;;;;;;;;5.60;62.90;;;;;;5102061;27;86368;-40
2023/03/28 14:44:15;;;;;;;;;;;5.70;62.80;;;;;;5102565;27;89331;-39